sensor_id;sensor_type;location;lat;lon;timestamp;P1;durP1;ratioP1;P2;durP2;ratioP2
14704;SDS011;7442;50.840;3.396;2024-03-17T00:00:22;3.85;;;2.00;;
14704;SDS011;7442;50.840;3.396;2024-03-17T00:02:52;4.10;;;1.95;;
14704;SDS011;7442;50.840;3.396;2024-03-17T00:05:22;3.15;;;2.00;;
14704;SDS011;7442;50.840;3.396;2024-03-17T00:07:52;3.70;;;2.17;;
14704;SDS011;7442;50.840;3.396;2024-03-17T00:10:22;4.12;;;2.25;;
14704;SDS011;7442;50.840;3.396;2024-03-17T00:12:53;3.05;;;2.20;;
14704;SDS011;7442;50.840;3.396;2024-03-17T00:15:23;3.27;;;1.87;;
14704;SDS011;7442;50.840;3.396;2024-03-17T00:17:53;2.95;;;1.90;;
14704;SDS011;7442;50.840;3.396;2024-03-17T00:20:23;3.80;;;2.00;;
14704;SDS011;7442;50.840;3.396;2024-03-17T00:22:53;3.10;;;2.22;;
14704;SDS011;7442;50.840;3.396;2024-03-17T00:25:23;3.58;;;1.92;;
14704;SDS011;7442;50.840;3.396;2024-03-17T00:27:53;3.75;;;1.82;;
14704;SDS011;7442;50.840;3.396;2024-03-17T00:30:25;2.95;;;2.08;;
14704;SDS011;7442;50.840;3.396;2024-03-17T00:32:56;2.85;;;1.70;;
14704;SDS011;7442;50.840;3.396;2024-03-17T00:35:28;2.95;;;1.90;;
14704;SDS011;7442;50.840;3.396;2024-03-17T00:37:58;2.83;;;1.70;;
14704;SDS011;7442;50.840;3.396;2024-03-17T00:40:30;2.02;;;1.70;;
14704;SDS011;7442;50.840;3.396;2024-03-17T00:43:00;3.40;;;1.80;;
14704;SDS011;7442;50.840;3.396;2024-03-17T00:45:30;3.25;;;1.90;;
14704;SDS011;7442;50.840;3.396;2024-03-17T00:48:00;3.20;;;2.08;;
14704;SDS011;7442;50.840;3.396;2024-03-17T00:50:30;3.92;;;2.20;;
14704;SDS011;7442;50.840;3.396;2024-03-17T00:53:00;4.05;;;2.12;;
14704;SDS011;7442;50.840;3.396;2024-03-17T00:55:32;2.47;;;1.85;;
14704;SDS011;7442;50.840;3.396;2024-03-17T00:58:04;3.05;;;1.65;;
14704;SDS011;7442;50.840;3.396;2024-03-17T01:00:34;3.77;;;1.98;;
14704;SDS011;7442;50.840;3.396;2024-03-17T01:03:04;2.90;;;1.75;;
14704;SDS011;7442;50.840;3.396;2024-03-17T01:05:34;2.60;;;1.70;;
14704;SDS011;7442;50.840;3.396;2024-03-17T01:08:08;2.10;;;1.70;;
14704;SDS011;7442;50.840;3.396;2024-03-17T01:10:38;3.60;;;1.90;;
14704;SDS011;7442;50.840;3.396;2024-03-17T01:13:10;2.65;;;1.60;;
14704;SDS011;7442;50.840;3.396;2024-03-17T01:15:40;2.70;;;1.95;;
14704;SDS011;7442;50.840;3.396;2024-03-17T01:18:10;3.50;;;1.98;;
14704;SDS011;7442;50.840;3.396;2024-03-17T01:20:40;2.92;;;1.70;;
14704;SDS011;7442;50.840;3.396;2024-03-17T01:23:10;2.67;;;1.57;;
14704;SDS011;7442;50.840;3.396;2024-03-17T01:25:42;2.55;;;1.70;;
14704;SDS011;7442;50.840;3.396;2024-03-17T01:28:12;2.30;;;1.92;;
14704;SDS011;7442;50.840;3.396;2024-03-17T01:30:42;2.62;;;1.90;;
14704;SDS011;7442;50.840;3.396;2024-03-17T01:33:12;2.25;;;1.75;;
14704;SDS011;7442;50.840;3.396;2024-03-17T01:35:42;2.02;;;1.80;;
14704;SDS011;7442;50.840;3.396;2024-03-17T01:38:12;2.92;;;1.82;;
14704;SDS011;7442;50.840;3.396;2024-03-17T01:40:42;2.25;;;1.60;;
14704;SDS011;7442;50.840;3.396;2024-03-17T01:43:14;2.20;;;1.80;;
14704;SDS011;7442;50.840;3.396;2024-03-17T01:45:44;2.05;;;1.50;;
14704;SDS011;7442;50.840;3.396;2024-03-17T01:48:14;2.33;;;1.70;;
14704;SDS011;7442;50.840;3.396;2024-03-17T01:50:48;4.25;;;1.60;;
14704;SDS011;7442;50.840;3.396;2024-03-17T01:53:20;2.10;;;1.72;;
14704;SDS011;7442;50.840;3.396;2024-03-17T01:55:53;2.50;;;1.75;;
14704;SDS011;7442;50.840;3.396;2024-03-17T01:58:26;2.00;;;1.75;;
14704;SDS011;7442;50.840;3.396;2024-03-17T02:00:58;2.80;;;1.72;;
14704;SDS011;7442;50.840;3.396;2024-03-17T02:03:29;3.33;;;1.60;;
14704;SDS011;7442;50.840;3.396;2024-03-17T02:05:59;2.92;;;1.85;;
14704;SDS011;7442;50.840;3.396;2024-03-17T02:08:31;2.08;;;1.67;;
14704;SDS011;7442;50.840;3.396;2024-03-17T02:11:03;2.42;;;1.85;;
14704;SDS011;7442;50.840;3.396;2024-03-17T02:13:34;2.72;;;2.22;;
14704;SDS011;7442;50.840;3.396;2024-03-17T02:16:04;2.62;;;1.80;;
14704;SDS011;7442;50.840;3.396;2024-03-17T02:18:34;2.77;;;1.50;;
14704;SDS011;7442;50.840;3.396;2024-03-17T02:21:04;1.95;;;1.75;;
14704;SDS011;7442;50.840;3.396;2024-03-17T02:23:34;2.50;;;1.85;;
14704;SDS011;7442;50.840;3.396;2024-03-17T02:26:04;2.00;;;1.80;;
14704;SDS011;7442;50.840;3.396;2024-03-17T02:28:38;1.60;;;1.50;;
14704;SDS011;7442;50.840;3.396;2024-03-17T02:31:09;2.37;;;2.03;;
14704;SDS011;7442;50.840;3.396;2024-03-17T02:33:42;2.10;;;1.70;;
14704;SDS011;7442;50.840;3.396;2024-03-17T02:36:12;2.05;;;1.80;;
14704;SDS011;7442;50.840;3.396;2024-03-17T02:38:44;3.05;;;1.70;;
14704;SDS011;7442;50.840;3.396;2024-03-17T02:41:32;3.60;;;2.00;;
14704;SDS011;7442;50.840;3.396;2024-03-17T02:44:02;2.35;;;1.90;;
14704;SDS011;7442;50.840;3.396;2024-03-17T02:46:33;3.30;;;1.60;;
14704;SDS011;7442;50.840;3.396;2024-03-17T02:49:03;2.80;;;1.80;;
14704;SDS011;7442;50.840;3.396;2024-03-17T02:51:33;2.20;;;1.82;;
14704;SDS011;7442;50.840;3.396;2024-03-17T02:54:03;2.47;;;1.90;;
14704;SDS011;7442;50.840;3.396;2024-03-17T02:56:34;1.85;;;1.52;;
14704;SDS011;7442;50.840;3.396;2024-03-17T02:59:04;1.98;;;1.80;;
14704;SDS011;7442;50.840;3.396;2024-03-17T03:01:35;1.72;;;1.62;;
14704;SDS011;7442;50.840;3.396;2024-03-17T03:04:05;2.47;;;1.70;;
14704;SDS011;7442;50.840;3.396;2024-03-17T03:06:35;2.95;;;1.40;;
14704;SDS011;7442;50.840;3.396;2024-03-17T03:09:05;2.33;;;1.80;;
14704;SDS011;7442;50.840;3.396;2024-03-17T03:11:38;2.40;;;1.92;;
14704;SDS011;7442;50.840;3.396;2024-03-17T03:14:11;2.52;;;1.72;;
14704;SDS011;7442;50.840;3.396;2024-03-17T03:16:41;2.35;;;1.47;;
14704;SDS011;7442;50.840;3.396;2024-03-17T03:19:11;1.67;;;1.52;;
14704;SDS011;7442;50.840;3.396;2024-03-17T03:21:42;1.57;;;1.47;;
14704;SDS011;7442;50.840;3.396;2024-03-17T03:24:15;2.10;;;1.47;;
14704;SDS011;7442;50.840;3.396;2024-03-17T03:26:45;1.70;;;1.37;;
14704;SDS011;7442;50.840;3.396;2024-03-17T03:29:16;2.10;;;1.72;;
14704;SDS011;7442;50.840;3.396;2024-03-17T03:31:47;2.05;;;1.57;;
14704;SDS011;7442;50.840;3.396;2024-03-17T03:34:17;2.02;;;1.55;;
14704;SDS011;7442;50.840;3.396;2024-03-17T03:36:47;2.45;;;2.08;;
14704;SDS011;7442;50.840;3.396;2024-03-17T03:39:17;1.72;;;1.50;;
14704;SDS011;7442;50.840;3.396;2024-03-17T03:41:48;2.02;;;1.80;;
14704;SDS011;7442;50.840;3.396;2024-03-17T03:44:18;1.65;;;1.52;;
14704;SDS011;7442;50.840;3.396;2024-03-17T03:46:48;2.45;;;1.72;;
14704;SDS011;7442;50.840;3.396;2024-03-17T03:49:18;1.92;;;1.50;;
14704;SDS011;7442;50.840;3.396;2024-03-17T03:51:48;1.72;;;1.32;;
14704;SDS011;7442;50.840;3.396;2024-03-17T03:54:18;2.17;;;1.72;;
14704;SDS011;7442;50.840;3.396;2024-03-17T03:56:48;2.08;;;1.55;;
14704;SDS011;7442;50.840;3.396;2024-03-17T03:59:19;3.12;;;1.70;;
14704;SDS011;7442;50.840;3.396;2024-03-17T04:01:49;2.37;;;1.50;;
14704;SDS011;7442;50.840;3.396;2024-03-17T04:04:20;2.50;;;1.85;;
14704;SDS011;7442;50.840;3.396;2024-03-17T04:06:50;1.47;;;1.37;;
14704;SDS011;7442;50.840;3.396;2024-03-17T04:09:20;1.57;;;1.47;;
14704;SDS011;7442;50.840;3.396;2024-03-17T04:11:50;1.62;;;1.52;;
14704;SDS011;7442;50.840;3.396;2024-03-17T04:14:20;1.85;;;1.60;;
14704;SDS011;7442;50.840;3.396;2024-03-17T04:16:50;1.92;;;1.70;;
14704;SDS011;7442;50.840;3.396;2024-03-17T04:19:20;1.80;;;1.60;;
14704;SDS011;7442;50.840;3.396;2024-03-17T04:21:50;1.72;;;1.42;;
14704;SDS011;7442;50.840;3.396;2024-03-17T04:24:21;1.70;;;1.60;;
14704;SDS011;7442;50.840;3.396;2024-03-17T04:26:51;1.70;;;1.60;;
14704;SDS011;7442;50.840;3.396;2024-03-17T04:29:21;2.33;;;1.65;;
14704;SDS011;7442;50.840;3.396;2024-03-17T04:31:52;2.45;;;1.70;;
14704;SDS011;7442;50.840;3.396;2024-03-17T04:34:22;2.65;;;1.47;;
14704;SDS011;7442;50.840;3.396;2024-03-17T04:36:52;2.15;;;1.67;;
14704;SDS011;7442;50.840;3.396;2024-03-17T04:39:25;2.52;;;1.40;;
14704;SDS011;7442;50.840;3.396;2024-03-17T04:41:55;1.77;;;1.67;;
14704;SDS011;7442;50.840;3.396;2024-03-17T04:44:25;1.60;;;1.50;;
14704;SDS011;7442;50.840;3.396;2024-03-17T04:46:55;2.67;;;1.65;;
14704;SDS011;7442;50.840;3.396;2024-03-17T04:49:25;2.08;;;1.50;;
14704;SDS011;7442;50.840;3.396;2024-03-17T04:51:55;1.95;;;1.50;;
14704;SDS011;7442;50.840;3.396;2024-03-17T04:54:25;2.15;;;1.75;;
14704;SDS011;7442;50.840;3.396;2024-03-17T04:56:55;1.80;;;1.62;;
14704;SDS011;7442;50.840;3.396;2024-03-17T04:59:25;1.82;;;1.52;;
14704;SDS011;7442;50.840;3.396;2024-03-17T05:01:56;1.60;;;1.50;;
14704;SDS011;7442;50.840;3.396;2024-03-17T05:04:26;1.75;;;1.62;;
14704;SDS011;7442;50.840;3.396;2024-03-17T05:06:56;1.82;;;1.60;;
14704;SDS011;7442;50.840;3.396;2024-03-17T05:09:26;1.50;;;1.40;;
14704;SDS011;7442;50.840;3.396;2024-03-17T05:11:56;1.57;;;1.47;;
14704;SDS011;7442;50.840;3.396;2024-03-17T05:14:26;1.98;;;1.62;;
14704;SDS011;7442;50.840;3.396;2024-03-17T05:16:56;2.08;;;1.55;;
14704;SDS011;7442;50.840;3.396;2024-03-17T05:19:26;1.80;;;1.45;;
14704;SDS011;7442;50.840;3.396;2024-03-17T05:21:56;1.90;;;1.52;;
14704;SDS011;7442;50.840;3.396;2024-03-17T05:24:26;1.65;;;1.55;;
14704;SDS011;7442;50.840;3.396;2024-03-17T05:26:56;1.67;;;1.57;;
14704;SDS011;7442;50.840;3.396;2024-03-17T05:29:26;1.52;;;1.32;;
14704;SDS011;7442;50.840;3.396;2024-03-17T05:31:56;1.80;;;1.65;;
14704;SDS011;7442;50.840;3.396;2024-03-17T05:34:26;1.57;;;1.30;;
14704;SDS011;7442;50.840;3.396;2024-03-17T05:36:56;2.15;;;1.45;;
14704;SDS011;7442;50.840;3.396;2024-03-17T05:39:26;1.57;;;1.30;;
14704;SDS011;7442;50.840;3.396;2024-03-17T05:41:56;1.87;;;1.40;;
14704;SDS011;7442;50.840;3.396;2024-03-17T05:44:26;2.70;;;1.50;;
14704;SDS011;7442;50.840;3.396;2024-03-17T05:46:57;1.45;;;1.35;;
14704;SDS011;7442;50.840;3.396;2024-03-17T05:49:27;1.55;;;1.32;;
14704;SDS011;7442;50.840;3.396;2024-03-17T05:51:57;2.08;;;1.60;;
14704;SDS011;7442;50.840;3.396;2024-03-17T05:54:27;1.60;;;1.50;;
14704;SDS011;7442;50.840;3.396;2024-03-17T05:56:58;1.42;;;1.32;;
14704;SDS011;7442;50.840;3.396;2024-03-17T05:59:28;1.77;;;1.47;;
14704;SDS011;7442;50.840;3.396;2024-03-17T06:01:58;1.62;;;1.20;;
14704;SDS011;7442;50.840;3.396;2024-03-17T06:04:28;1.42;;;1.20;;
14704;SDS011;7442;50.840;3.396;2024-03-17T06:06:58;1.60;;;1.50;;
14704;SDS011;7442;50.840;3.396;2024-03-17T06:09:28;1.75;;;1.52;;
14704;SDS011;7442;50.840;3.396;2024-03-17T06:11:58;1.67;;;1.42;;
14704;SDS011;7442;50.840;3.396;2024-03-17T06:14:28;1.37;;;1.27;;
14704;SDS011;7442;50.840;3.396;2024-03-17T06:16:59;1.65;;;1.30;;
14704;SDS011;7442;50.840;3.396;2024-03-17T06:19:30;1.98;;;1.57;;
14704;SDS011;7442;50.840;3.396;2024-03-17T06:22:00;1.80;;;1.45;;
14704;SDS011;7442;50.840;3.396;2024-03-17T06:24:30;1.30;;;1.20;;
14704;SDS011;7442;50.840;3.396;2024-03-17T06:27:00;1.40;;;1.30;;
14704;SDS011;7442;50.840;3.396;2024-03-17T06:29:36;1.30;;;1.20;;
14704;SDS011;7442;50.840;3.396;2024-03-17T06:32:02;1.75;;;1.50;;
14704;SDS011;7442;50.840;3.396;2024-03-17T06:34:32;1.35;;;1.22;;
14704;SDS011;7442;50.840;3.396;2024-03-17T06:37:02;1.57;;;1.47;;
14704;SDS011;7442;50.840;3.396;2024-03-17T06:39:32;1.62;;;1.30;;
14704;SDS011;7442;50.840;3.396;2024-03-17T06:42:02;1.80;;;1.40;;
14704;SDS011;7442;50.840;3.396;2024-03-17T06:44:32;1.40;;;1.30;;
14704;SDS011;7442;50.840;3.396;2024-03-17T06:47:04;1.40;;;1.30;;
14704;SDS011;7442;50.840;3.396;2024-03-17T06:49:34;1.62;;;1.20;;
14704;SDS011;7442;50.840;3.396;2024-03-17T06:52:05;1.60;;;1.27;;
14704;SDS011;7442;50.840;3.396;2024-03-17T06:54:35;1.90;;;1.35;;
14704;SDS011;7442;50.840;3.396;2024-03-17T06:57:05;1.20;;;1.10;;
14704;SDS011;7442;50.840;3.396;2024-03-17T06:59:35;1.45;;;1.30;;
14704;SDS011;7442;50.840;3.396;2024-03-17T07:02:07;1.30;;;1.20;;
14704;SDS011;7442;50.840;3.396;2024-03-17T07:04:39;1.30;;;1.20;;
14704;SDS011;7442;50.840;3.396;2024-03-17T07:07:09;1.20;;;1.10;;
14704;SDS011;7442;50.840;3.396;2024-03-17T07:09:40;1.60;;;1.47;;
14704;SDS011;7442;50.840;3.396;2024-03-17T07:12:11;1.95;;;1.40;;
14704;SDS011;7442;50.840;3.396;2024-03-17T07:14:41;1.60;;;1.40;;
14704;SDS011;7442;50.840;3.396;2024-03-17T07:17:11;1.27;;;1.12;;
14704;SDS011;7442;50.840;3.396;2024-03-17T07:19:41;1.50;;;1.40;;
14704;SDS011;7442;50.840;3.396;2024-03-17T07:22:11;1.37;;;1.27;;
14704;SDS011;7442;50.840;3.396;2024-03-17T07:24:41;1.40;;;1.30;;
14704;SDS011;7442;50.840;3.396;2024-03-17T07:27:12;1.37;;;1.20;;
14704;SDS011;7442;50.840;3.396;2024-03-17T07:29:42;1.77;;;1.40;;
14704;SDS011;7442;50.840;3.396;2024-03-17T07:32:14;2.40;;;1.10;;
14704;SDS011;7442;50.840;3.396;2024-03-17T07:34:44;1.92;;;1.40;;
14704;SDS011;7442;50.840;3.396;2024-03-17T07:37:15;1.37;;;1.10;;
14704;SDS011;7442;50.840;3.396;2024-03-17T07:39:45;1.30;;;1.20;;
14704;SDS011;7442;50.840;3.396;2024-03-17T07:42:18;1.35;;;1.20;;
14704;SDS011;7442;50.840;3.396;2024-03-17T07:44:48;1.30;;;1.20;;
14704;SDS011;7442;50.840;3.396;2024-03-17T07:47:19;1.30;;;1.20;;
14704;SDS011;7442;50.840;3.396;2024-03-17T07:49:49;1.65;;;1.00;;
14704;SDS011;7442;50.840;3.396;2024-03-17T07:52:19;1.82;;;1.40;;
14704;SDS011;7442;50.840;3.396;2024-03-17T07:54:49;1.27;;;1.15;;
14704;SDS011;7442;50.840;3.396;2024-03-17T07:57:19;1.30;;;1.20;;
14704;SDS011;7442;50.840;3.396;2024-03-17T07:59:49;2.58;;;1.17;;
14704;SDS011;7442;50.840;3.396;2024-03-17T08:02:22;1.52;;;1.20;;
14704;SDS011;7442;50.840;3.396;2024-03-17T08:04:52;1.37;;;1.20;;
14704;SDS011;7442;50.840;3.396;2024-03-17T08:07:23;1.85;;;1.40;;
14704;SDS011;7442;50.840;3.396;2024-03-17T08:09:53;1.12;;;1.00;;
14704;SDS011;7442;50.840;3.396;2024-03-17T08:12:23;1.37;;;1.10;;
14704;SDS011;7442;50.840;3.396;2024-03-17T08:14:53;1.32;;;1.20;;
14704;SDS011;7442;50.840;3.396;2024-03-17T08:17:23;1.80;;;1.30;;
14704;SDS011;7442;50.840;3.396;2024-03-17T08:19:53;1.30;;;1.00;;
14704;SDS011;7442;50.840;3.396;2024-03-17T08:22:23;2.75;;;1.30;;
14704;SDS011;7442;50.840;3.396;2024-03-17T08:24:53;2.42;;;1.32;;
14704;SDS011;7442;50.840;3.396;2024-03-17T08:27:23;1.40;;;1.10;;
14704;SDS011;7442;50.840;3.396;2024-03-17T08:29:54;6.35;;;1.40;;
14704;SDS011;7442;50.840;3.396;2024-03-17T08:32:24;2.70;;;1.30;;
14704;SDS011;7442;50.840;3.396;2024-03-17T08:34:54;6.17;;;1.25;;
14704;SDS011;7442;50.840;3.396;2024-03-17T08:37:26;2.58;;;1.15;;
14704;SDS011;7442;50.840;3.396;2024-03-17T08:39:56;1.87;;;1.50;;
14704;SDS011;7442;50.840;3.396;2024-03-17T08:42:32;2.40;;;1.60;;
14704;SDS011;7442;50.840;3.396;2024-03-17T08:45:02;3.27;;;1.55;;
14704;SDS011;7442;50.840;3.396;2024-03-17T08:47:33;4.83;;;1.67;;
14704;SDS011;7442;50.840;3.396;2024-03-17T08:50:03;1.67;;;1.50;;
14704;SDS011;7442;50.840;3.396;2024-03-17T08:52:35;6.72;;;1.70;;
14704;SDS011;7442;50.840;3.396;2024-03-17T08:55:06;2.60;;;1.50;;
14704;SDS011;7442;50.840;3.396;2024-03-17T08:57:38;2.42;;;1.70;;
14704;SDS011;7442;50.840;3.396;2024-03-17T09:00:09;3.02;;;1.45;;
14704;SDS011;7442;50.840;3.396;2024-03-17T09:02:40;2.62;;;1.50;;
14704;SDS011;7442;50.840;3.396;2024-03-17T09:05:10;2.47;;;1.80;;
14704;SDS011;7442;50.840;3.396;2024-03-17T09:07:43;6.50;;;1.70;;
14704;SDS011;7442;50.840;3.396;2024-03-17T09:10:13;10.13;;;2.35;;
14704;SDS011;7442;50.840;3.396;2024-03-17T09:12:43;6.83;;;2.20;;
14704;SDS011;7442;50.840;3.396;2024-03-17T09:15:15;6.60;;;2.30;;
14704;SDS011;7442;50.840;3.396;2024-03-17T09:17:46;8.18;;;2.37;;
14704;SDS011;7442;50.840;3.396;2024-03-17T09:20:16;5.30;;;1.90;;
14704;SDS011;7442;50.840;3.396;2024-03-17T09:22:46;6.05;;;2.08;;
14704;SDS011;7442;50.840;3.396;2024-03-17T09:25:16;5.25;;;2.10;;
14704;SDS011;7442;50.840;3.396;2024-03-17T09:27:46;9.20;;;2.52;;
14704;SDS011;7442;50.840;3.396;2024-03-17T09:30:16;7.87;;;2.40;;
14704;SDS011;7442;50.840;3.396;2024-03-17T09:32:46;7.10;;;2.40;;
14704;SDS011;7442;50.840;3.396;2024-03-17T09:35:16;9.03;;;2.67;;
14704;SDS011;7442;50.840;3.396;2024-03-17T09:37:47;6.87;;;2.80;;
14704;SDS011;7442;50.840;3.396;2024-03-17T09:40:17;6.08;;;2.52;;
14704;SDS011;7442;50.840;3.396;2024-03-17T09:42:47;9.30;;;2.27;;
14704;SDS011;7442;50.840;3.396;2024-03-17T09:45:17;13.43;;;2.65;;
14704;SDS011;7442;50.840;3.396;2024-03-17T09:47:48;13.40;;;2.40;;
14704;SDS011;7442;50.840;3.396;2024-03-17T09:50:18;9.80;;;2.85;;
14704;SDS011;7442;50.840;3.396;2024-03-17T09:52:49;13.88;;;3.08;;
14704;SDS011;7442;50.840;3.396;2024-03-17T09:55:20;12.70;;;2.80;;
14704;SDS011;7442;50.840;3.396;2024-03-17T09:57:50;7.85;;;2.22;;
14704;SDS011;7442;50.840;3.396;2024-03-17T10:00:20;9.53;;;3.02;;
14704;SDS011;7442;50.840;3.396;2024-03-17T10:02:51;11.68;;;2.60;;
14704;SDS011;7442;50.840;3.396;2024-03-17T10:05:24;15.83;;;2.70;;
14704;SDS011;7442;50.840;3.396;2024-03-17T10:07:54;10.65;;;2.60;;
14704;SDS011;7442;50.840;3.396;2024-03-17T10:10:24;8.70;;;2.25;;
14704;SDS011;7442;50.840;3.396;2024-03-17T10:12:55;6.33;;;2.08;;
14704;SDS011;7442;50.840;3.396;2024-03-17T10:15:25;6.17;;;2.10;;
14704;SDS011;7442;50.840;3.396;2024-03-17T10:17:55;5.83;;;2.30;;
14704;SDS011;7442;50.840;3.396;2024-03-17T10:20:25;7.00;;;2.55;;
14704;SDS011;7442;50.840;3.396;2024-03-17T10:23:03;6.42;;;2.30;;
14704;SDS011;7442;50.840;3.396;2024-03-17T10:25:40;3.87;;;2.25;;
14704;SDS011;7442;50.840;3.396;2024-03-17T10:28:11;5.75;;;2.55;;
14704;SDS011;7442;50.840;3.396;2024-03-17T10:30:42;6.67;;;2.15;;
14704;SDS011;7442;50.840;3.396;2024-03-17T10:33:25;8.45;;;2.60;;
14704;SDS011;7442;50.840;3.396;2024-03-17T10:36:00;7.67;;;2.20;;
14704;SDS011;7442;50.840;3.396;2024-03-17T10:38:32;8.28;;;2.30;;
14704;SDS011;7442;50.840;3.396;2024-03-17T10:41:03;5.00;;;2.08;;
14704;SDS011;7442;50.840;3.396;2024-03-17T10:43:34;3.65;;;1.82;;
14704;SDS011;7442;50.840;3.396;2024-03-17T10:46:06;5.05;;;1.85;;
14704;SDS011;7442;50.840;3.396;2024-03-17T10:48:37;3.75;;;1.90;;
14704;SDS011;7442;50.840;3.396;2024-03-17T10:51:08;6.87;;;1.98;;
14704;SDS011;7442;50.840;3.396;2024-03-17T10:53:41;5.17;;;1.80;;
14704;SDS011;7442;50.840;3.396;2024-03-17T10:56:14;6.12;;;1.87;;
14704;SDS011;7442;50.840;3.396;2024-03-17T10:58:48;3.50;;;1.92;;
14704;SDS011;7442;50.840;3.396;2024-03-17T11:01:20;6.10;;;2.15;;
14704;SDS011;7442;50.840;3.396;2024-03-17T11:03:51;6.53;;;2.00;;
14704;SDS011;7442;50.840;3.396;2024-03-17T11:06:21;5.62;;;1.98;;
14704;SDS011;7442;50.840;3.396;2024-03-17T11:08:52;3.25;;;1.82;;
14704;SDS011;7442;50.840;3.396;2024-03-17T11:11:37;4.17;;;1.75;;
14704;SDS011;7442;50.840;3.396;2024-03-17T11:14:15;4.97;;;1.70;;
14704;SDS011;7442;50.840;3.396;2024-03-17T11:16:54;9.05;;;1.82;;
14704;SDS011;7442;50.840;3.396;2024-03-17T11:19:30;3.92;;;1.70;;
14704;SDS011;7442;50.840;3.396;2024-03-17T11:22:41;4.15;;;1.52;;
14704;SDS011;7442;50.840;3.396;2024-03-17T11:24:50;3.55;;;1.87;;
14704;SDS011;7442;50.840;3.396;2024-03-17T11:39:00;3.65;;;1.70;;
14704;SDS011;7442;50.840;3.396;2024-03-17T11:41:39;4.67;;;1.70;;
14704;SDS011;7442;50.840;3.396;2024-03-17T11:46:58;4.10;;;1.70;;
14704;SDS011;7442;50.840;3.396;2024-03-17T11:54:41;19.15;;;4.53;;
14704;SDS011;7442;50.840;3.396;2024-03-17T11:57:13;30.55;;;6.80;;
14704;SDS011;7442;50.840;3.396;2024-03-17T11:59:45;32.90;;;9.30;;
14704;SDS011;7442;50.840;3.396;2024-03-17T12:02:22;45.52;;;10.13;;
14704;SDS011;7442;50.840;3.396;2024-03-17T12:04:58;44.05;;;12.00;;
14704;SDS011;7442;50.840;3.396;2024-03-17T12:07:33;42.03;;;11.93;;
14704;SDS011;7442;50.840;3.396;2024-03-17T12:10:07;42.35;;;10.63;;
14704;SDS011;7442;50.840;3.396;2024-03-17T12:12:46;35.03;;;10.30;;
14704;SDS011;7442;50.840;3.396;2024-03-17T12:15:18;37.23;;;10.80;;
14704;SDS011;7442;50.840;3.396;2024-03-17T12:17:53;33.75;;;10.75;;
14704;SDS011;7442;50.840;3.396;2024-03-17T12:20:24;37.35;;;10.90;;
14704;SDS011;7442;50.840;3.396;2024-03-17T12:22:54;32.93;;;9.40;;
14704;SDS011;7442;50.840;3.396;2024-03-17T12:25:25;32.25;;;9.73;;
14704;SDS011;7442;50.840;3.396;2024-03-17T12:27:57;31.00;;;9.38;;
14704;SDS011;7442;50.840;3.396;2024-03-17T12:30:27;31.77;;;10.00;;
14704;SDS011;7442;50.840;3.396;2024-03-17T12:32:58;28.52;;;8.75;;
14704;SDS011;7442;50.840;3.396;2024-03-17T12:35:28;34.55;;;9.25;;
14704;SDS011;7442;50.840;3.396;2024-03-17T12:38:00;29.95;;;8.90;;
14704;SDS011;7442;50.840;3.396;2024-03-17T12:40:30;26.87;;;8.23;;
14704;SDS011;7442;50.840;3.396;2024-03-17T12:43:03;29.95;;;9.20;;
14704;SDS011;7442;50.840;3.396;2024-03-17T12:45:34;23.83;;;8.20;;
14704;SDS011;7442;50.840;3.396;2024-03-17T12:48:10;27.00;;;7.92;;
14704;SDS011;7442;50.840;3.396;2024-03-17T12:50:46;24.95;;;8.18;;
14704;SDS011;7442;50.840;3.396;2024-03-17T12:53:16;28.55;;;7.53;;
14704;SDS011;7442;50.840;3.396;2024-03-17T12:55:53;22.87;;;7.83;;
14704;SDS011;7442;50.840;3.396;2024-03-17T12:58:41;22.20;;;7.17;;
14704;SDS011;7442;50.840;3.396;2024-03-17T13:01:29;21.40;;;7.08;;
14704;SDS011;7442;50.840;3.396;2024-03-17T13:04:05;19.60;;;7.30;;
14704;SDS011;7442;50.840;3.396;2024-03-17T13:06:37;26.52;;;6.50;;
14704;SDS011;7442;50.840;3.396;2024-03-17T13:09:07;15.58;;;6.33;;
14704;SDS011;7442;50.840;3.396;2024-03-17T13:11:38;19.52;;;6.45;;
14704;SDS011;7442;50.840;3.396;2024-03-17T13:14:08;20.10;;;6.62;;
14704;SDS011;7442;50.840;3.396;2024-03-17T13:16:40;26.12;;;8.80;;
14704;SDS011;7442;50.840;3.396;2024-03-17T13:19:10;20.30;;;6.90;;
14704;SDS011;7442;50.840;3.396;2024-03-17T13:21:40;19.10;;;5.97;;
14704;SDS011;7442;50.840;3.396;2024-03-17T13:24:10;15.32;;;5.92;;
14704;SDS011;7442;50.840;3.396;2024-03-17T13:26:41;17.12;;;5.90;;
14704;SDS011;7442;50.840;3.396;2024-03-17T13:29:12;16.85;;;5.62;;
14704;SDS011;7442;50.840;3.396;2024-03-17T13:31:42;19.77;;;5.95;;
14704;SDS011;7442;50.840;3.396;2024-03-17T13:34:12;16.70;;;5.47;;
14704;SDS011;7442;50.840;3.396;2024-03-17T13:36:42;13.18;;;5.25;;
14704;SDS011;7442;50.840;3.396;2024-03-17T13:39:12;12.95;;;5.17;;
14704;SDS011;7442;50.840;3.396;2024-03-17T13:41:42;15.13;;;4.83;;
14704;SDS011;7442;50.840;3.396;2024-03-17T13:44:14;18.25;;;5.40;;
14704;SDS011;7442;50.840;3.396;2024-03-17T13:46:44;13.28;;;4.95;;
14704;SDS011;7442;50.840;3.396;2024-03-17T13:49:16;13.55;;;5.30;;
14704;SDS011;7442;50.840;3.396;2024-03-17T13:51:46;11.05;;;4.08;;
14704;SDS011;7442;50.840;3.396;2024-03-17T13:54:16;12.65;;;4.47;;
14704;SDS011;7442;50.840;3.396;2024-03-17T13:56:46;13.65;;;4.60;;
14704;SDS011;7442;50.840;3.396;2024-03-17T13:59:17;13.35;;;5.20;;
14704;SDS011;7442;50.840;3.396;2024-03-17T14:01:47;11.68;;;4.53;;
14704;SDS011;7442;50.840;3.396;2024-03-17T14:04:17;14.07;;;4.45;;
14704;SDS011;7442;50.840;3.396;2024-03-17T14:06:48;12.05;;;4.60;;
14704;SDS011;7442;50.840;3.396;2024-03-17T14:09:18;11.22;;;4.15;;
14704;SDS011;7442;50.840;3.396;2024-03-17T14:11:48;15.83;;;4.72;;
14704;SDS011;7442;50.840;3.396;2024-03-17T14:14:18;9.70;;;3.65;;
14704;SDS011;7442;50.840;3.396;2024-03-17T14:16:49;9.30;;;3.70;;
14704;SDS011;7442;50.840;3.396;2024-03-17T14:19:19;11.35;;;3.80;;
14704;SDS011;7442;50.840;3.396;2024-03-17T14:21:49;10.35;;;4.28;;
14704;SDS011;7442;50.840;3.396;2024-03-17T14:24:19;11.73;;;3.45;;
14704;SDS011;7442;50.840;3.396;2024-03-17T14:26:49;14.33;;;4.20;;
14704;SDS011;7442;50.840;3.396;2024-03-17T14:29:19;11.78;;;3.95;;
14704;SDS011;7442;50.840;3.396;2024-03-17T14:31:49;10.10;;;3.98;;
14704;SDS011;7442;50.840;3.396;2024-03-17T14:34:19;12.85;;;3.65;;
14704;SDS011;7442;50.840;3.396;2024-03-17T14:36:49;6.55;;;3.42;;
14704;SDS011;7442;50.840;3.396;2024-03-17T14:39:19;10.65;;;3.83;;
14704;SDS011;7442;50.840;3.396;2024-03-17T14:41:50;11.65;;;3.85;;
14704;SDS011;7442;50.840;3.396;2024-03-17T14:44:20;10.58;;;3.30;;
14704;SDS011;7442;50.840;3.396;2024-03-17T14:46:50;7.20;;;3.12;;
14704;SDS011;7442;50.840;3.396;2024-03-17T14:49:20;11.83;;;3.98;;
14704;SDS011;7442;50.840;3.396;2024-03-17T14:51:51;9.28;;;3.08;;
14704;SDS011;7442;50.840;3.396;2024-03-17T14:54:21;16.30;;;3.00;;
14704;SDS011;7442;50.840;3.396;2024-03-17T14:56:51;7.87;;;3.27;;
14704;SDS011;7442;50.840;3.396;2024-03-17T14:59:22;8.70;;;2.62;;
14704;SDS011;7442;50.840;3.396;2024-03-17T15:01:52;8.53;;;3.35;;
14704;SDS011;7442;50.840;3.396;2024-03-17T15:04:22;6.35;;;2.90;;
14704;SDS011;7442;50.840;3.396;2024-03-17T15:06:54;11.68;;;2.98;;
14704;SDS011;7442;50.840;3.396;2024-03-17T15:09:26;9.30;;;3.67;;
14704;SDS011;7442;50.840;3.396;2024-03-17T15:11:56;12.35;;;3.15;;
14704;SDS011;7442;50.840;3.396;2024-03-17T15:14:26;10.23;;;2.98;;
14704;SDS011;7442;50.840;3.396;2024-03-17T15:16:56;9.70;;;3.30;;
14704;SDS011;7442;50.840;3.396;2024-03-17T15:19:27;13.10;;;2.90;;
14704;SDS011;7442;50.840;3.396;2024-03-17T15:21:57;6.92;;;3.00;;
14704;SDS011;7442;50.840;3.396;2024-03-17T15:24:27;11.40;;;2.80;;
14704;SDS011;7442;50.840;3.396;2024-03-17T15:26:57;8.73;;;2.83;;
14704;SDS011;7442;50.840;3.396;2024-03-17T15:29:27;10.85;;;2.62;;
14704;SDS011;7442;50.840;3.396;2024-03-17T15:31:58;5.60;;;2.67;;
14704;SDS011;7442;50.840;3.396;2024-03-17T15:34:28;6.20;;;2.50;;
14704;SDS011;7442;50.840;3.396;2024-03-17T15:37:00;10.68;;;3.08;;
14704;SDS011;7442;50.840;3.396;2024-03-17T15:39:30;6.42;;;2.58;;